createdAt,value
2023-04-01T00:01:04.774Z,11.24
2023-04-01T00:03:34.456Z,11.23
2023-04-01T00:06:03.075Z,11.22
2023-04-01T00:08:31.559Z,11.20
2023-04-01T00:10:59.645Z,11.19
2023-04-01T00:13:27.904Z,11.17
2023-04-01T00:15:57.290Z,11.17
2023-04-01T00:18:25.796Z,11.15
2023-04-01T00:20:54.415Z,11.16
2023-04-01T00:23:22.257Z,11.16
2023-04-01T00:25:50.655Z,11.14
2023-04-01T00:28:19.152Z,11.13
2023-04-01T00:30:47.327Z,11.11
2023-04-01T00:33:16.137Z,11.11
2023-04-01T00:35:44.096Z,11.09
2023-04-01T00:38:12.469Z,11.08
2023-04-01T00:40:42.273Z,11.07
2023-04-01T00:43:15.077Z,11.09
2023-04-01T00:45:44.171Z,11.08
2023-04-01T00:48:15.629Z,11.08
2023-04-01T00:50:45.424Z,11.04
2023-04-01T00:53:13.726Z,11.03
2023-04-01T00:55:44.983Z,11.01
2023-04-01T00:58:16.949Z,10.99
2023-04-01T01:00:46.592Z,10.98
2023-04-01T01:03:14.586Z,10.97
2023-04-01T01:05:51.956Z,10.96
2023-04-01T01:08:46.390Z,10.95
2023-04-01T01:11:15.506Z,10.94
2023-04-01T01:13:46.642Z,10.93
2023-04-01T01:16:19.977Z,10.94
2023-04-01T01:19:08.132Z,10.92
2023-04-01T01:21:44.947Z,10.92
2023-04-01T01:24:12.822Z,10.91
2023-04-01T01:27:01.883Z,10.91
2023-04-01T01:29:43.678Z,10.92
2023-04-01T01:32:30.641Z,10.93
2023-04-01T01:35:17.165Z,10.92
2023-04-01T01:37:46.883Z,10.94
2023-04-01T01:40:17.120Z,10.94
2023-04-01T01:42:48.461Z,10.93
2023-04-01T01:45:19.205Z,10.93
2023-04-01T01:47:48.743Z,10.91
2023-04-01T01:50:17.229Z,10.89
2023-04-01T01:52:45.018Z,10.86
2023-04-01T01:55:25.222Z,10.83
2023-04-01T01:57:53.427Z,10.82
2023-04-01T02:00:22.283Z,10.80
2023-04-01T02:02:51.486Z,10.80
2023-04-01T02:05:24.376Z,10.79
2023-04-01T02:07:58.894Z,10.80
2023-04-01T02:10:27.899Z,10.80
2023-04-01T02:12:59.649Z,10.80
2023-04-01T02:15:31.937Z,10.80
2023-04-01T02:18:00.677Z,10.83
2023-04-01T02:20:30.533Z,10.84
2023-04-01T02:23:00.824Z,10.85
2023-04-01T02:25:30.002Z,10.86
2023-04-01T02:27:59.370Z,10.87
2023-04-01T02:30:28.681Z,10.88
2023-04-01T02:32:58.171Z,10.89
2023-04-01T02:35:27.070Z,10.90
2023-04-01T02:37:56.023Z,10.91
2023-04-01T02:40:24.004Z,10.91
2023-04-01T02:42:53.032Z,10.89
2023-04-01T02:45:21.136Z,10.88
2023-04-01T02:47:49.003Z,10.86
2023-04-01T02:50:17.668Z,10.85
2023-04-01T02:52:45.665Z,10.85
2023-04-01T02:55:14.769Z,10.86
2023-04-01T02:57:42.933Z,10.88
2023-04-01T03:00:12.306Z,10.88
2023-04-01T03:02:40.712Z,10.88
2023-04-01T03:05:09.120Z,10.88
2023-04-01T03:07:36.973Z,10.89
2023-04-01T03:10:05.372Z,10.91
2023-04-01T03:12:33.354Z,10.94
2023-04-01T03:15:10.775Z,10.99
2023-04-01T03:17:41.200Z,11.03
2023-04-01T03:20:09.756Z,11.05
2023-04-01T03:22:39.265Z,11.04
2023-04-01T03:25:09.082Z,11.05
2023-04-01T03:27:37.152Z,11.07
2023-04-01T03:30:06.842Z,11.09
2023-04-01T03:32:37.151Z,11.11
2023-04-01T03:35:05.981Z,11.12
2023-04-01T03:37:34.063Z,11.13
2023-04-01T03:40:02.351Z,11.13
2023-04-01T03:42:32.656Z,11.13
2023-04-01T03:45:00.646Z,11.16
2023-04-01T03:47:28.651Z,11.18
2023-04-01T03:49:57.213Z,11.20
2023-04-01T03:52:25.700Z,11.19
2023-04-01T03:54:53.767Z,11.19
2023-04-01T03:57:21.906Z,11.18
2023-04-01T03:59:50.332Z,11.18
2023-04-01T04:02:18.662Z,11.19
2023-04-01T04:04:48.730Z,11.19
2023-04-01T04:07:16.814Z,11.17
2023-04-01T04:10:06.746Z,11.16
2023-04-01T04:12:34.636Z,11.16
2023-04-01T04:15:02.848Z,11.15
2023-04-01T04:17:30.751Z,11.16
2023-04-01T04:19:59.004Z,11.16
2023-04-01T04:22:27.074Z,11.17
2023-04-01T04:24:55.873Z,11.16
2023-04-01T04:27:23.845Z,11.17
2023-04-01T04:30:01.848Z,11.17
2023-04-01T04:32:31.417Z,11.16
2023-04-01T04:34:59.632Z,11.16
2023-04-01T04:37:27.613Z,11.15
2023-04-01T04:39:55.695Z,11.15
2023-04-01T04:42:23.757Z,11.15
2023-04-01T04:44:56.538Z,11.15
2023-04-01T04:47:25.078Z,11.15
2023-04-01T04:49:53.112Z,11.15
2023-04-01T04:52:21.289Z,11.15
2023-04-01T04:54:49.355Z,11.14
2023-04-01T04:57:17.454Z,11.15
2023-04-01T04:59:51.455Z,11.16
2023-04-01T05:02:42.338Z,11.20
2023-04-01T05:05:11.444Z,11.19
2023-04-01T05:07:39.649Z,11.17
2023-04-01T05:10:07.905Z,11.15
2023-04-01T05:12:38.640Z,11.15
2023-04-01T05:15:09.292Z,11.14
2023-04-01T05:17:37.877Z,11.13
2023-04-01T05:20:09.533Z,11.12
2023-04-01T05:22:37.602Z,11.11
2023-04-01T05:25:06.402Z,11.10
2023-04-01T05:27:34.472Z,11.09
2023-04-01T05:30:02.942Z,11.07
2023-04-01T05:32:48.762Z,11.06
2023-04-01T05:35:16.815Z,11.03
2023-04-01T05:37:44.788Z,11.02
2023-04-01T05:40:12.849Z,11.00
2023-04-01T05:42:40.855Z,10.98
2023-04-01T05:45:10.111Z,10.94
2023-04-01T05:48:10.466Z,10.90
2023-04-01T05:50:41.192Z,10.87
2023-04-01T05:53:09.166Z,10.84
2023-04-01T05:55:37.517Z,10.82
2023-04-01T05:58:05.839Z,10.79
2023-04-01T06:00:34.122Z,10.77
2023-04-01T06:03:02.474Z,10.76
2023-04-01T06:05:32.287Z,10.74
2023-04-01T06:08:02.469Z,10.73
2023-04-01T06:10:45.899Z,10.73
2023-04-01T06:13:32.775Z,10.71
2023-04-01T06:16:00.967Z,10.70
2023-04-01T06:18:48.159Z,10.70
2023-04-01T06:21:38.139Z,10.70
2023-04-01T06:24:42.938Z,10.68
2023-04-01T06:27:23.309Z,10.66
2023-04-01T06:29:52.205Z,10.66
2023-04-01T06:32:26.322Z,10.66
2023-04-01T06:34:57.570Z,10.68
2023-04-01T06:37:41.817Z,10.68
2023-04-01T06:40:09.789Z,10.70
2023-04-01T06:42:49.453Z,10.70
2023-04-01T06:45:55.060Z,10.71
2023-04-01T06:49:00.798Z,10.72
2023-04-01T06:52:17.385Z,10.75
2023-04-01T06:55:10.631Z,10.76
2023-04-01T06:58:04.805Z,10.77
2023-04-01T07:00:36.073Z,10.78
2023-04-01T07:03:07.742Z,10.79
2023-04-01T07:05:36.915Z,10.80
2023-04-01T07:08:07.963Z,10.80
2023-04-01T07:10:43.935Z,10.81
2023-04-01T07:13:53.497Z,10.81
2023-04-01T07:16:27.057Z,10.81
2023-04-01T07:19:04.520Z,10.81
2023-04-01T07:21:54.183Z,10.82
2023-04-01T07:24:39.044Z,10.83
2023-04-01T07:27:13.770Z,10.83
2023-04-01T07:29:43.096Z,10.84
2023-04-01T07:32:28.201Z,10.86
2023-04-01T07:35:16.722Z,10.87
2023-04-01T07:38:01.035Z,10.86
2023-04-01T07:40:32.078Z,10.85
2023-04-01T07:43:19.193Z,10.86
2023-04-01T07:46:00.617Z,10.86
2023-04-01T07:48:36.839Z,10.87
2023-04-01T07:51:16.374Z,10.88
2023-04-01T07:53:50.887Z,10.88
2023-04-01T07:56:40.258Z,10.88
2023-04-01T07:59:29.632Z,10.88
2023-04-01T08:02:13.208Z,10.88
2023-04-01T08:04:47.728Z,10.89
2023-04-01T08:07:25.575Z,10.91
2023-04-01T08:10:16.265Z,10.97
2023-04-01T08:13:24.140Z,11.01
2023-04-01T08:16:25.684Z,11.05
2023-04-01T08:19:02.264Z,11.10
2023-04-01T08:21:42.918Z,11.13
2023-04-01T08:24:22.165Z,11.18
2023-04-01T08:26:54.420Z,11.21
2023-04-01T08:29:26.178Z,11.24
2023-04-01T08:31:58.248Z,11.25
2023-04-01T08:34:35.435Z,11.28
2023-04-01T08:37:06.685Z,11.30
2023-04-01T08:39:34.856Z,11.32
2023-04-01T08:42:16.343Z,11.35
2023-04-01T08:45:14.373Z,11.39
2023-04-01T08:47:51.261Z,11.41
2023-04-01T08:50:22.321Z,11.43
2023-04-01T08:53:22.978Z,11.44
2023-04-01T08:56:03.605Z,11.44
2023-04-01T08:58:51.028Z,11.46
2023-04-01T09:01:42.843Z,11.48
2023-04-01T09:04:34.845Z,11.52
2023-04-01T09:07:12.849Z,11.55
2023-04-01T09:09:52.325Z,11.57
2023-04-01T09:12:22.744Z,11.61
2023-04-01T09:14:55.092Z,11.65
2023-04-01T09:17:38.757Z,11.68
2023-04-01T09:20:21.940Z,11.72
2023-04-01T09:23:08.418Z,11.74
2023-04-01T09:25:59.574Z,11.76
2023-04-01T09:29:03.341Z,11.79
2023-04-01T09:32:07.049Z,11.83
2023-04-01T09:35:11.765Z,11.89
2023-04-01T09:37:52.847Z,11.97
2023-04-01T09:40:59.203Z,12.03
2023-04-01T09:43:57.262Z,12.11
2023-04-01T09:46:54.708Z,12.19
2023-04-01T09:49:22.659Z,12.26
2023-04-01T09:52:11.203Z,12.32
2023-04-01T09:54:53.007Z,12.38
2023-04-01T09:57:40.210Z,12.45
2023-04-01T10:00:39.919Z,12.53
2023-04-01T10:03:28.380Z,12.60
2023-04-01T10:06:21.585Z,12.67
2023-04-01T10:09:09.229Z,12.75
2023-04-01T10:11:56.426Z,12.82
2023-04-01T10:14:43.541Z,12.88
2023-04-01T10:17:14.513Z,12.94
2023-04-01T10:19:51.870Z,13.00
2023-04-01T10:22:30.695Z,13.05
2023-04-01T10:24:58.873Z,13.08
2023-04-01T10:27:33.216Z,13.10
2023-04-01T10:30:44.353Z,13.12
2023-04-01T10:33:17.641Z,13.13
2023-04-01T10:35:52.385Z,13.14
2023-04-01T10:38:39.185Z,13.14
2023-04-01T10:41:07.244Z,13.15
2023-04-01T10:44:33.248Z,13.15
2023-04-01T10:47:10.103Z,13.15
2023-04-01T10:49:39.248Z,13.16
2023-04-01T10:52:07.209Z,13.16
2023-04-01T10:54:59.534Z,13.16
2023-04-01T10:57:51.350Z,13.16
2023-04-01T11:01:10.506Z,13.16
2023-04-01T11:04:06.809Z,13.17
2023-04-01T11:06:40.804Z,13.17
2023-04-01T11:09:27.564Z,13.17
2023-04-01T11:11:58.446Z,13.16
2023-04-01T11:14:45.985Z,13.14
2023-04-01T11:17:23.610Z,13.11
2023-04-01T11:20:11.177Z,13.08
2023-04-01T11:22:42.145Z,12.92
2023-04-01T11:25:29.528Z,12.73
2023-04-01T11:28:48.813Z,12.53
2023-04-01T11:31:17.059Z,12.37
2023-04-01T11:33:46.290Z,12.26
2023-04-01T11:36:21.184Z,12.15
2023-04-01T11:39:08.429Z,12.06
2023-04-01T11:42:13.451Z,11.96
2023-04-01T11:45:25.031Z,11.86
2023-04-01T11:47:57.757Z,11.78
2023-04-01T11:50:39.382Z,11.73
2023-04-01T11:53:29.667Z,11.67
2023-04-01T11:56:09.528Z,11.62
2023-04-01T11:58:46.809Z,11.58
2023-04-01T12:01:34.418Z,11.54
2023-04-01T12:04:20.973Z,11.51
2023-04-01T12:06:48.905Z,11.47
2023-04-01T12:09:32.660Z,11.44
2023-04-01T12:12:24.054Z,11.42
2023-04-01T12:14:54.990Z,11.40
2023-04-01T12:17:45.265Z,11.39
2023-04-01T12:20:13.821Z,11.38
2023-04-01T12:22:41.831Z,11.37
2023-04-01T12:25:23.924Z,11.38
2023-04-01T12:27:52.382Z,11.41
2023-04-01T12:30:34.095Z,11.42
2023-04-01T12:33:17.419Z,11.45
2023-04-01T12:35:48.520Z,11.49
2023-04-01T12:38:25.344Z,11.53
2023-04-01T12:41:08.664Z,11.57
2023-04-01T12:43:46.150Z,11.61
2023-04-01T12:46:17.268Z,11.65
2023-04-01T12:48:47.990Z,11.68
2023-04-01T12:51:16.112Z,11.72
2023-04-01T12:53:47.371Z,11.76
2023-04-01T12:56:28.949Z,11.79
2023-04-01T12:58:56.923Z,11.83
2023-04-01T13:01:43.029Z,11.86
2023-04-01T13:04:26.745Z,11.90
2023-04-01T13:06:57.775Z,11.93
2023-04-01T13:09:25.715Z,11.96
2023-04-01T13:12:03.261Z,11.99
2023-04-01T13:14:50.166Z,12.01
2023-04-01T13:17:22.783Z,12.04
2023-04-01T13:20:04.271Z,12.06
2023-04-01T13:22:53.166Z,12.08
2023-04-01T13:26:12.990Z,12.10
2023-04-01T13:28:41.415Z,12.13
2023-04-01T13:31:09.207Z,12.15
2023-04-01T13:33:46.168Z,12.16
2023-04-01T13:36:20.316Z,12.17
2023-04-01T13:38:48.264Z,12.20
2023-04-01T13:41:36.485Z,12.20
2023-04-01T13:44:10.605Z,12.22
2023-04-01T13:46:41.831Z,12.23
2023-04-01T13:49:10.025Z,12.23
2023-04-01T13:51:47.525Z,12.24
2023-04-01T13:54:31.570Z,12.25
2023-04-01T13:57:08.765Z,12.25
2023-04-01T13:59:55.693Z,12.25
2023-04-01T14:02:42.630Z,12.26
2023-04-01T14:05:10.945Z,12.25
2023-04-01T14:07:41.876Z,12.26
2023-04-01T14:10:10.572Z,12.26
2023-04-01T14:12:41.721Z,12.27
2023-04-01T14:15:23.343Z,12.27
2023-04-01T14:17:56.440Z,12.28
2023-04-01T14:20:31.521Z,12.27
2023-04-01T14:22:59.403Z,12.28
2023-04-01T14:25:42.765Z,12.28
2023-04-01T14:28:11.423Z,12.28
2023-04-01T14:30:48.082Z,12.27
2023-04-01T14:33:17.786Z,12.27
2023-04-01T14:35:49.081Z,12.27
2023-04-01T14:38:27.571Z,12.28
2023-04-01T14:41:07.654Z,12.27
2023-04-01T14:43:47.975Z,12.27
2023-04-01T14:46:19.149Z,12.27
2023-04-01T14:49:15.549Z,12.28
2023-04-01T14:51:43.617Z,12.28
2023-04-01T14:54:11.646Z,12.28
2023-04-01T14:56:43.718Z,12.28
2023-04-01T14:59:15.222Z,12.29
2023-04-01T15:01:49.120Z,12.30
2023-04-01T15:04:27.790Z,12.29
2023-04-01T15:07:07.083Z,12.28
2023-04-01T15:09:47.449Z,12.28
2023-04-01T15:12:28.098Z,12.27
2023-04-01T15:15:01.922Z,12.26
2023-04-01T15:17:30.059Z,12.24
2023-04-01T15:20:16.796Z,12.22
2023-04-01T15:22:44.790Z,12.20
2023-04-01T15:25:33.320Z,12.18
2023-04-01T15:28:07.223Z,12.15
2023-04-01T15:30:52.017Z,12.13
2023-04-01T15:33:40.209Z,12.09
2023-04-01T15:36:08.122Z,12.02
2023-04-01T15:38:45.069Z,11.97
2023-04-01T15:41:32.065Z,11.87
2023-04-01T15:44:00.166Z,11.77
2023-04-01T15:46:56.468Z,11.71
2023-04-01T15:49:34.171Z,11.63
2023-04-01T15:52:17.393Z,11.55
2023-04-01T15:54:56.307Z,11.47
2023-04-01T15:57:24.338Z,11.41
2023-04-01T16:00:07.433Z,11.37
2023-04-01T16:02:59.282Z,11.34
2023-04-01T16:05:45.923Z,11.33
2023-04-01T16:08:29.083Z,11.30
2023-04-01T16:11:11.038Z,11.28
2023-04-01T16:13:48.532Z,11.24
2023-04-01T16:16:22.887Z,11.21
2023-04-01T16:18:54.108Z,11.18
2023-04-01T16:21:22.071Z,11.17
2023-04-01T16:23:50.044Z,11.15
2023-04-01T16:26:17.908Z,11.13
2023-04-01T16:28:45.930Z,11.12
2023-04-01T16:31:26.598Z,11.10
2023-04-01T16:34:00.049Z,11.09
2023-04-01T16:36:42.457Z,11.08
2023-04-01T16:39:33.967Z,11.08
2023-04-01T16:42:25.575Z,11.08
2023-04-01T16:45:09.727Z,11.08
2023-04-01T16:47:41.520Z,11.08
2023-04-01T16:50:24.421Z,11.06
2023-04-01T16:53:03.839Z,11.05
2023-04-01T16:55:37.753Z,11.05
2023-04-01T16:58:08.694Z,11.03
2023-04-01T17:00:42.404Z,11.02
2023-04-01T17:03:13.638Z,11.00
2023-04-01T17:05:47.654Z,10.98
2023-04-01T17:08:27.901Z,10.95
2023-04-01T17:11:02.548Z,10.92
2023-04-01T17:13:37.365Z,10.88
2023-04-01T17:16:08.566Z,10.84
2023-04-01T17:18:42.527Z,10.81
2023-04-01T17:21:18.279Z,10.79
2023-04-01T17:23:52.098Z,10.75
2023-04-01T17:26:26.241Z,10.73
2023-04-01T17:29:13.106Z,10.70
2023-04-01T17:31:47.802Z,10.68
2023-04-01T17:34:31.871Z,10.66
2023-04-01T17:37:18.778Z,10.63
2023-04-01T17:39:56.074Z,10.61
2023-04-01T17:42:32.341Z,10.58
2023-04-01T17:45:00.399Z,10.55
2023-04-01T17:48:01.537Z,10.54
2023-04-01T17:50:55.799Z,10.52
2023-04-01T17:53:39.117Z,10.49
2023-04-01T17:56:16.721Z,10.48
2023-04-01T17:58:53.093Z,10.45
2023-04-01T18:01:33.363Z,10.44
2023-04-01T18:04:04.144Z,10.43
2023-04-01T18:06:33.581Z,10.42
2023-04-01T18:09:06.471Z,10.40
2023-04-01T18:11:36.120Z,10.39
2023-04-01T18:14:24.433Z,10.37
2023-04-01T18:17:28.331Z,10.36
2023-04-01T18:20:02.242Z,10.34
2023-04-01T18:22:44.939Z,10.33
2023-04-01T18:25:22.715Z,10.32
2023-04-01T18:27:53.154Z,10.31
2023-04-01T18:30:30.461Z,10.30
2023-04-01T18:33:02.965Z,10.29
2023-04-01T18:35:46.297Z,10.27
2023-04-01T18:38:15.056Z,10.26
2023-04-01T18:40:42.944Z,10.24
2023-04-01T18:43:19.574Z,10.24
2023-04-01T18:45:55.308Z,10.22
2023-04-01T18:48:43.670Z,10.20
2023-04-01T18:51:25.479Z,10.18
2023-04-01T18:54:06.752Z,10.17
2023-04-01T18:56:46.111Z,10.16
2023-04-01T18:59:14.172Z,10.14
2023-04-01T19:02:08.960Z,10.13
2023-04-01T19:04:42.144Z,10.10
2023-04-01T19:07:43.395Z,10.09
2023-04-01T19:10:13.991Z,10.07
2023-04-01T19:12:41.895Z,10.06
2023-04-01T19:15:39.758Z,10.05
2023-04-01T19:18:10.853Z,10.03
2023-04-01T19:20:44.019Z,10.02
2023-04-01T19:23:18.394Z,10.01
2023-04-01T19:25:48.512Z,10.00
2023-04-01T19:28:35.417Z,9.99
2023-04-01T19:31:03.414Z,9.98
2023-04-01T19:33:37.307Z,9.97
2023-04-01T19:36:05.224Z,9.95
2023-04-01T19:38:52.078Z,9.95
2023-04-01T19:41:20.062Z,9.94
2023-04-01T19:44:07.210Z,9.92
2023-04-01T19:46:43.802Z,9.91
2023-04-01T19:49:26.259Z,9.90
2023-04-01T19:52:05.093Z,9.91
2023-04-01T19:54:51.872Z,9.91
2023-04-01T19:57:23.155Z,9.92
2023-04-01T19:59:53.346Z,9.94
2023-04-01T20:02:27.307Z,9.96
2023-04-01T20:05:00.955Z,9.97
2023-04-01T20:07:28.833Z,9.99
2023-04-01T20:10:08.369Z,10.02
2023-04-01T20:12:40.942Z,10.04
2023-04-01T20:15:27.974Z,10.06
2023-04-01T20:17:57.907Z,10.08
2023-04-01T20:20:27.807Z,10.09
2023-04-01T20:23:14.496Z,10.10
2023-04-01T20:25:50.659Z,10.10
2023-04-01T20:28:18.732Z,10.11
2023-04-01T20:30:52.951Z,10.11
2023-04-01T20:33:27.562Z,10.12
2023-04-01T20:35:58.752Z,10.13
2023-04-01T20:38:39.084Z,10.14
2023-04-01T20:41:10.120Z,10.14
2023-04-01T20:43:52.530Z,10.15
2023-04-01T20:46:34.322Z,10.15
2023-04-01T20:49:17.845Z,10.15
2023-04-01T20:51:55.657Z,10.15
2023-04-01T20:54:26.590Z,10.15
2023-04-01T20:56:57.026Z,10.16
2023-04-01T20:59:34.416Z,10.15
2023-04-01T21:02:25.821Z,10.14
2023-04-01T21:05:13.023Z,10.12
2023-04-01T21:08:00.130Z,10.12
2023-04-01T21:10:37.317Z,10.11
2023-04-01T21:13:05.290Z,10.10
2023-04-01T21:15:51.837Z,10.10
2023-04-01T21:18:26.310Z,10.09
2023-04-01T21:20:54.402Z,10.09
2023-04-01T21:23:31.147Z,10.09
2023-04-01T21:26:14.083Z,10.08
2023-04-01T21:28:42.154Z,10.08
2023-04-01T21:31:22.387Z,10.08
2023-04-01T21:34:02.742Z,10.08
2023-04-01T21:36:49.395Z,10.08
2023-04-01T21:39:34.434Z,10.08
2023-04-01T21:42:14.703Z,10.07
2023-04-01T21:44:42.678Z,10.06
2023-04-01T21:47:14.054Z,10.04
2023-04-01T21:49:47.829Z,10.02
2023-04-01T21:52:34.723Z,10.00
2023-04-01T21:55:21.760Z,9.99
2023-04-01T21:58:12.411Z,9.98
2023-04-01T22:00:59.431Z,9.97
2023-04-01T22:03:30.715Z,9.97
2023-04-01T22:06:06.023Z,9.96
2023-04-01T22:08:53.140Z,9.96
2023-04-01T22:11:33.660Z,9.96
2023-04-01T22:14:21.425Z,9.95
2023-04-01T22:16:51.943Z,9.94
2023-04-01T22:19:26.169Z,9.92
2023-04-01T22:22:02.724Z,9.91
2023-04-01T22:24:36.138Z,9.88
2023-04-01T22:27:04.023Z,9.88
2023-04-01T22:29:42.947Z,9.86
2023-04-01T22:32:17.549Z,9.85
2023-04-01T22:34:56.892Z,9.84
2023-04-01T22:37:31.320Z,9.82
2023-04-01T22:40:18.309Z,9.80
2023-04-01T22:42:48.135Z,9.78
2023-04-01T22:45:28.454Z,9.77
2023-04-01T22:48:14.962Z,9.75
2023-04-01T22:50:51.146Z,9.73
2023-04-01T22:53:26.194Z,9.70
2023-04-01T22:55:57.430Z,9.68
2023-04-01T22:58:34.118Z,9.67
2023-04-01T23:01:22.896Z,9.66
2023-04-01T23:03:52.669Z,9.64
2023-04-01T23:06:29.051Z,9.61
2023-04-01T23:09:02.343Z,9.59
2023-04-01T23:11:42.595Z,9.54
2023-04-01T23:14:11.799Z,9.50
2023-04-01T23:16:44.388Z,9.47
2023-04-01T23:19:12.341Z,9.43
2023-04-01T23:21:51.769Z,9.40
2023-04-01T23:24:32.133Z,9.35
2023-04-01T23:27:04.419Z,9.31
2023-04-01T23:29:36.586Z,9.26
2023-04-01T23:32:05.386Z,9.22
2023-04-01T23:34:36.753Z,9.18
2023-04-01T23:37:17.167Z,9.15
2023-04-01T23:39:47.094Z,9.11
2023-04-01T23:42:20.720Z,9.06
2023-04-01T23:44:50.721Z,9.02
2023-04-01T23:47:32.108Z,8.98
2023-04-01T23:50:19.810Z,8.93
2023-04-01T23:52:49.537Z,8.90
2023-04-01T23:55:26.233Z,8.87
2023-04-01T23:58:03.496Z,8.83
